createdAt,value
2023-04-18T00:02:24.387Z,101131.63
2023-04-18T00:05:12.486Z,101148.06
2023-04-18T00:07:58.372Z,101120.44
2023-04-18T00:10:44.703Z,101224.13
2023-04-18T00:13:30.264Z,101218.94
2023-04-18T00:16:16.777Z,101082.88
2023-04-18T00:19:04.931Z,101119.84
2023-04-18T00:21:53.612Z,101171.31
2023-04-18T00:24:40.511Z,101186.97
2023-04-18T00:27:27.313Z,101144.50
2023-04-18T00:30:13.802Z,101168.31
2023-04-18T00:32:59.891Z,101170.81
2023-04-18T00:35:45.976Z,101173.84
2023-04-18T00:38:33.891Z,101070.09
2023-04-18T00:41:20.746Z,101168.03
2023-04-18T00:44:07.646Z,101223.38
2023-04-18T00:46:54.425Z,101209.72
2023-04-18T00:49:40.891Z,101211.34
2023-04-18T00:52:27.937Z,101142.31
2023-04-18T00:55:14.226Z,101208.03
2023-04-18T00:58:00.215Z,101156.84
2023-04-18T01:00:47.314Z,101075.88
2023-04-18T01:03:35.673Z,101073.06
2023-04-18T01:06:22.951Z,101173.84
2023-04-18T01:09:08.909Z,101201.47
2023-04-18T01:11:55.410Z,101161.75
2023-04-18T01:14:44.581Z,101118.78
2023-04-18T01:17:32.026Z,101167.75
2023-04-18T01:20:17.718Z,101162.56
2023-04-18T01:23:04.049Z,101160.16
2023-04-18T01:25:50.078Z,101129.47
2023-04-18T01:28:37.675Z,101152.78
2023-04-18T01:31:23.589Z,101120.84
2023-04-18T01:34:10.769Z,101108.75
2023-04-18T01:36:56.431Z,101167.88
2023-04-18T01:39:42.612Z,101211.34
2023-04-18T01:42:30.040Z,101102.97
2023-04-18T01:45:17.302Z,101138.75
2023-04-18T01:48:03.364Z,101121.78
2023-04-18T01:50:49.610Z,101158.72
2023-04-18T01:53:35.295Z,101146.97
2023-04-18T01:56:22.006Z,101146.66
2023-04-18T01:59:07.872Z,101126.16
2023-04-18T02:01:55.559Z,101159.84
2023-04-18T02:04:43.291Z,101158.16
2023-04-18T02:07:29.838Z,101101.25
2023-04-18T02:10:16.081Z,101122.59
2023-04-18T02:13:02.385Z,101158.13
2023-04-18T02:15:48.984Z,101124.50
2023-04-18T02:18:35.354Z,101128.09
2023-04-18T02:21:22.098Z,101147.28
2023-04-18T02:24:08.851Z,101149.22
2023-04-18T02:26:54.550Z,101111.75
2023-04-18T02:29:41.126Z,101145.41
2023-04-18T02:32:27.063Z,101165.34
2023-04-18T02:35:13.543Z,101166.13
2023-04-18T02:37:59.818Z,101149.41
2023-04-18T02:40:46.342Z,101142.53
2023-04-18T02:43:32.120Z,101158.91
2023-04-18T02:46:18.444Z,101122.22
2023-04-18T02:49:07.513Z,101140.88
2023-04-18T02:51:58.012Z,101109.94
2023-04-18T02:54:44.245Z,101145.50
2023-04-18T02:57:35.270Z,101071.31
2023-04-18T03:00:38.833Z,101193.09
2023-04-18T03:03:43.992Z,101113.13
2023-04-18T03:06:49.112Z,101140.25
2023-04-18T03:09:36.941Z,101202.09
2023-04-18T03:12:30.641Z,101196.63
2023-04-18T03:15:17.099Z,101122.69
2023-04-18T03:18:03.151Z,101156.03
2023-04-18T03:20:53.267Z,101122.38
2023-04-18T03:23:39.455Z,101118.84
2023-04-18T03:26:26.620Z,101142.13
2023-04-18T03:29:13.861Z,101115.28
2023-04-18T03:32:04.265Z,101192.72
2023-04-18T03:34:51.445Z,101195.75
2023-04-18T03:37:38.028Z,101185.63
2023-04-18T03:40:24.261Z,101133.59
2023-04-18T03:43:13.524Z,101209.16
2023-04-18T03:46:00.494Z,101199.31
2023-04-18T03:48:47.647Z,101202.06
2023-04-18T03:51:41.802Z,101150.56
2023-04-18T03:54:27.932Z,101120.47
2023-04-18T03:57:13.718Z,101159.38
2023-04-18T04:00:01.053Z,101205.34
2023-04-18T04:02:50.463Z,101102.44
2023-04-18T04:05:40.255Z,101165.16
2023-04-18T04:08:27.667Z,101153.63
2023-04-18T04:11:14.566Z,101201.81
2023-04-18T04:14:01.335Z,101203.72
2023-04-18T04:16:53.993Z,101200.69
2023-04-18T04:19:40.728Z,101129.47
2023-04-18T04:22:32.848Z,101108.66
2023-04-18T04:25:19.621Z,101121.88
2023-04-18T04:28:07.023Z,101179.63
2023-04-18T04:31:01.745Z,101126.47
2023-04-18T04:33:48.279Z,101142.00
2023-04-18T04:36:37.920Z,101177.63
2023-04-18T04:39:26.074Z,101227.69
2023-04-18T04:42:29.524Z,101145.53
2023-04-18T04:45:24.623Z,101166.69
2023-04-18T04:48:11.602Z,101145.00
2023-04-18T04:51:00.188Z,101132.72
2023-04-18T04:53:47.469Z,101142.25
2023-04-18T04:56:33.716Z,101156.22
2023-04-18T04:59:19.814Z,101105.06
2023-04-18T05:02:06.210Z,101198.94
2023-04-18T05:04:52.239Z,101187.72
2023-04-18T05:07:38.449Z,101116.78
2023-04-18T05:10:24.599Z,101185.56
2023-04-18T05:13:13.091Z,101188.81
2023-04-18T05:15:59.395Z,101158.72
2023-04-18T05:18:46.220Z,101238.13
2023-04-18T05:21:33.019Z,101219.25
2023-04-18T05:24:19.788Z,101217.63
2023-04-18T05:27:06.417Z,101178.19
2023-04-18T05:29:53.043Z,101159.88
2023-04-18T05:32:39.332Z,101168.41
2023-04-18T05:35:26.899Z,101220.44
2023-04-18T05:38:12.649Z,101228.13
2023-04-18T05:41:00.538Z,101242.94
2023-04-18T05:43:54.186Z,101113.13
2023-04-18T05:46:45.146Z,101159.69
2023-04-18T05:49:31.170Z,101174.72
2023-04-18T05:52:21.069Z,101197.81
2023-04-18T05:55:07.642Z,101199.72
2023-04-18T05:57:53.998Z,101168.00
2023-04-18T06:00:39.930Z,101156.53
2023-04-18T06:03:26.476Z,101208.81
2023-04-18T06:06:13.034Z,101173.78
2023-04-18T06:08:59.606Z,101245.84
2023-04-18T06:11:45.682Z,101169.22
2023-04-18T06:14:31.941Z,101100.31
2023-04-18T06:17:18.457Z,101170.59
2023-04-18T06:20:06.357Z,101125.22
2023-04-18T06:22:52.415Z,101242.09
2023-04-18T06:25:41.768Z,101136.19
2023-04-18T06:28:28.653Z,101178.91
2023-04-18T06:31:15.586Z,101198.88
2023-04-18T06:34:01.980Z,101183.25
2023-04-18T06:36:49.405Z,101238.25
2023-04-18T06:39:35.131Z,101272.50
2023-04-18T06:42:22.589Z,101186.31
2023-04-18T06:45:12.660Z,101226.78
2023-04-18T06:55:51.410Z,101173.03
2023-04-18T06:59:09.045Z,101281.66
2023-04-18T07:02:36.830Z,101286.63
2023-04-18T07:06:05.630Z,101229.16
2023-04-18T07:09:20.412Z,101285.84
2023-04-18T07:13:09.453Z,101285.84
2023-04-18T07:16:24.722Z,101284.75
2023-04-18T07:19:51.308Z,101219.13
2023-04-18T07:23:01.977Z,101253.31
2023-04-18T07:29:42.324Z,101292.72
2023-04-18T07:33:24.136Z,101295.72
2023-04-18T07:36:51.729Z,101300.09
2023-04-18T07:40:30.731Z,101300.09
2023-04-18T07:44:21.496Z,101299.28
2023-04-18T07:47:38.647Z,101257.97
2023-04-18T07:51:42.594Z,101305.28
2023-04-18T07:55:07.685Z,101301.47
2023-04-18T08:22:15.942Z,101207.09
2023-04-18T08:25:51.534Z,101269.97
2023-04-18T08:29:02.389Z,101237.97
2023-04-18T08:32:04.478Z,101284.97
2023-04-18T08:35:31.360Z,101270.19
2023-04-18T08:42:11.551Z,101310.28
2023-04-18T08:45:13.810Z,101323.69
2023-04-18T08:48:41.238Z,101315.72
2023-04-18T08:52:26.494Z,101310.22
2023-04-18T08:55:29.154Z,101321.16
2023-04-18T09:06:21.059Z,101286.84
2023-04-18T09:09:56.277Z,101325.97
2023-04-18T09:13:00.960Z,101324.03
2023-04-18T09:20:18.953Z,101319.47
2023-04-18T09:28:55.874Z,101319.75
2023-04-18T09:31:54.528Z,101301.84
2023-04-18T09:34:42.578Z,101330.22
2023-04-18T09:37:29.337Z,101324.25
2023-04-18T09:40:19.315Z,101299.59
2023-04-18T09:43:19.552Z,101283.94
2023-04-18T09:46:06.185Z,101286.97
2023-04-18T09:48:52.224Z,101338.66
2023-04-18T09:51:40.496Z,101284.59
2023-04-18T09:54:26.324Z,101334.22
2023-04-18T09:57:13.976Z,101313.19
2023-04-18T10:00:14.172Z,101339.97
2023-04-18T10:03:08.417Z,101308.28
2023-04-18T10:05:55.866Z,101343.25
2023-04-18T10:08:48.085Z,101289.06
2023-04-18T10:11:34.176Z,101273.72
2023-04-18T10:14:21.416Z,101261.16
2023-04-18T10:17:07.646Z,101331.25
2023-04-18T10:20:10.334Z,101254.03
2023-04-18T10:22:57.935Z,101324.25
2023-04-18T10:25:50.767Z,101319.94
2023-04-18T10:28:54.928Z,101320.06
2023-04-18T10:31:41.240Z,101335.91
2023-04-18T10:34:27.177Z,101289.34
2023-04-18T10:37:14.000Z,101274.78
2023-04-18T10:40:05.851Z,101323.81
2023-04-18T10:42:52.215Z,101289.06
2023-04-18T10:45:38.398Z,101294.22
2023-04-18T10:48:27.893Z,101311.03
2023-04-18T10:51:23.248Z,101291.75
2023-04-18T10:54:12.089Z,101302.81
2023-04-18T10:56:59.760Z,101300.06
2023-04-18T10:59:50.378Z,101307.44
2023-04-18T11:02:36.240Z,101305.22
2023-04-18T11:05:25.302Z,101303.25
2023-04-18T11:08:24.399Z,101295.47
2023-04-18T11:11:11.460Z,101273.81
2023-04-18T11:13:59.273Z,101266.16
2023-04-18T11:16:45.825Z,101302.94
2023-04-18T11:19:31.518Z,101303.19
2023-04-18T11:22:18.218Z,101285.94
2023-04-18T11:25:10.169Z,101302.00
2023-04-18T11:27:59.264Z,101296.44
2023-04-18T11:30:45.052Z,101288.84
2023-04-18T11:33:31.435Z,101271.91
2023-04-18T11:36:17.168Z,101220.78
2023-04-18T11:39:03.497Z,101292.91
2023-04-18T11:41:50.712Z,101241.44
2023-04-18T11:44:39.956Z,101205.28
2023-04-18T11:47:30.361Z,101290.50
2023-04-18T11:50:16.730Z,101260.41
2023-04-18T11:53:02.440Z,101197.31
2023-04-18T11:55:55.932Z,101261.47
2023-04-18T11:58:43.180Z,101262.00
2023-04-18T12:01:29.045Z,101272.03
2023-04-18T12:04:16.816Z,101262.00
2023-04-18T12:07:03.996Z,101285.50
2023-04-18T12:09:52.388Z,101276.31
2023-04-18T12:12:48.518Z,101255.50
2023-04-18T12:15:37.013Z,101243.78
2023-04-18T12:18:23.561Z,101240.22
2023-04-18T12:21:10.513Z,101270.34
2023-04-18T12:23:57.511Z,101269.44
2023-04-18T12:26:46.129Z,101247.41
2023-04-18T12:29:32.457Z,101268.03
2023-04-18T12:32:18.912Z,101258.94
2023-04-18T12:35:06.441Z,101258.59
2023-04-18T12:37:53.986Z,101237.28
2023-04-18T12:40:41.077Z,101249.44
2023-04-18T12:43:27.189Z,101264.16
2023-04-18T12:46:13.618Z,101267.41
2023-04-18T12:49:00.863Z,101220.06
2023-04-18T12:51:46.787Z,101258.56
2023-04-18T12:54:32.630Z,101261.53
2023-04-18T12:57:18.711Z,101259.91
2023-04-18T13:00:10.612Z,101249.16
2023-04-18T13:02:56.929Z,101202.25
2023-04-18T13:05:43.445Z,101233.03
2023-04-18T13:08:29.612Z,101182.00
2023-04-18T13:11:15.602Z,101232.94
2023-04-18T13:14:01.983Z,101187.84
2023-04-18T13:16:48.847Z,101217.44
2023-04-18T13:19:35.248Z,101248.56
2023-04-18T13:22:21.996Z,101226.91
2023-04-18T13:25:10.581Z,101205.31
2023-04-18T13:27:58.744Z,101227.16
2023-04-18T13:30:45.098Z,101220.94
2023-04-18T13:33:30.718Z,101233.78
2023-04-18T13:36:16.674Z,101180.50
2023-04-18T13:39:04.698Z,101233.91
2023-04-18T13:41:53.726Z,101231.66
2023-04-18T13:44:39.738Z,101191.13
2023-04-18T13:47:26.139Z,101201.94
2023-04-18T13:50:12.392Z,101212.03
2023-04-18T13:52:58.241Z,101202.56
2023-04-18T13:55:43.697Z,101209.28
2023-04-18T13:58:29.911Z,101173.06
2023-04-18T14:01:16.771Z,101182.69
2023-04-18T14:04:03.792Z,101167.06
2023-04-18T14:06:50.549Z,101219.03
2023-04-18T14:09:36.708Z,101182.06
2023-04-18T14:12:52.531Z,101216.88
2023-04-18T14:19:04.881Z,101216.78
2023-04-18T14:21:51.140Z,101176.69
2023-04-18T14:24:36.717Z,101175.22
2023-04-18T14:27:23.533Z,101144.75
2023-04-18T14:30:10.343Z,101210.38
2023-04-18T14:32:56.786Z,101182.81
2023-04-18T14:35:43.983Z,101214.34
2023-04-18T14:38:30.196Z,101144.84
2023-04-18T14:41:16.630Z,101203.22
2023-04-18T14:44:04.215Z,101207.78
2023-04-18T14:46:50.916Z,101170.88
2023-04-18T14:49:37.436Z,101098.84
2023-04-18T14:52:23.861Z,101189.00
2023-04-18T14:55:10.329Z,101147.59
2023-04-18T14:57:56.428Z,101200.03
2023-04-18T15:00:42.680Z,101186.78
2023-04-18T15:03:29.055Z,101162.69
2023-04-18T15:06:16.089Z,101126.78
2023-04-18T15:09:02.069Z,101166.69
2023-04-18T15:11:48.409Z,101131.28
2023-04-18T15:14:37.493Z,101162.06
2023-04-18T15:17:24.551Z,101197.38
2023-04-18T15:20:10.653Z,101193.00
2023-04-18T15:22:57.185Z,101124.47
2023-04-18T15:25:44.915Z,101188.94
2023-04-18T15:28:33.760Z,101134.25
2023-04-18T15:31:23.666Z,101168.09
2023-04-18T15:34:15.589Z,101133.94
2023-04-18T15:37:11.050Z,101191.06
2023-04-18T15:39:59.323Z,101149.75
2023-04-18T15:42:51.323Z,101168.19
2023-04-18T15:45:39.185Z,101105.16
2023-04-18T15:48:36.468Z,101144.94
2023-04-18T15:51:28.190Z,101163.41
2023-04-18T15:54:15.529Z,101127.81
2023-04-18T15:57:04.310Z,101176.84
2023-04-18T15:59:50.474Z,101174.19
2023-04-18T16:02:36.788Z,101135.13
2023-04-18T16:05:24.061Z,101091.59
2023-04-18T16:08:11.633Z,101171.25
2023-04-18T16:11:11.942Z,101168.69
2023-04-18T16:14:00.981Z,101181.66
2023-04-18T16:16:48.782Z,101172.88
2023-04-18T16:19:41.393Z,101178.38
2023-04-18T16:22:28.937Z,101111.69
2023-04-18T16:25:16.610Z,101173.69
2023-04-18T16:28:02.326Z,101159.84
2023-04-18T16:30:56.582Z,101109.22
2023-04-18T16:34:00.461Z,101149.81
2023-04-18T16:37:07.384Z,101172.97
2023-04-18T16:39:54.176Z,101174.41
2023-04-18T16:42:41.697Z,101180.22
2023-04-18T16:45:31.952Z,101183.56
2023-04-18T16:48:19.067Z,101141.44
2023-04-18T16:51:06.121Z,101108.44
2023-04-18T16:53:52.332Z,101182.81
2023-04-18T16:56:40.131Z,101164.41
2023-04-18T16:59:26.111Z,101185.22
2023-04-18T17:02:13.708Z,101185.31
2023-04-18T17:05:00.791Z,101183.16
2023-04-18T17:07:51.791Z,101188.75
2023-04-18T17:10:40.614Z,101180.88
2023-04-18T17:13:29.045Z,101180.66
2023-04-18T17:16:20.260Z,101178.88
2023-04-18T17:19:10.358Z,101154.47
2023-04-18T17:21:56.967Z,101096.50
2023-04-18T17:24:45.280Z,101115.66
2023-04-18T17:27:31.872Z,101199.63
2023-04-18T17:30:21.386Z,101192.28
2023-04-18T17:33:11.000Z,101193.19
2023-04-18T17:35:57.827Z,101163.25
2023-04-18T17:38:49.512Z,101185.69
2023-04-18T17:41:38.560Z,101201.03
2023-04-18T17:44:25.965Z,101197.53
2023-04-18T17:47:14.070Z,101159.09
2023-04-18T17:50:03.180Z,101172.59
2023-04-18T17:52:50.063Z,101204.47
2023-04-18T17:55:40.172Z,101186.81
2023-04-18T17:58:27.792Z,101171.63
2023-04-18T18:01:20.017Z,101207.97
2023-04-18T18:04:07.208Z,101189.00
2023-04-18T18:06:54.736Z,101216.16
2023-04-18T18:09:42.362Z,101188.22
2023-04-18T18:12:28.766Z,101159.97
2023-04-18T18:15:15.448Z,101169.06
2023-04-18T18:18:02.374Z,101155.47
2023-04-18T18:20:48.884Z,101208.16
2023-04-18T18:23:34.487Z,101210.13
2023-04-18T18:26:20.540Z,101224.34
2023-04-18T18:29:09.497Z,101232.59
2023-04-18T18:31:55.451Z,101237.34
2023-04-18T18:34:41.009Z,101208.72
2023-04-18T18:37:27.702Z,101225.44
2023-04-18T18:40:13.734Z,101213.13
2023-04-18T18:43:00.647Z,101238.91
2023-04-18T18:45:46.452Z,101228.28
2023-04-18T18:48:33.066Z,101162.25
2023-04-18T18:51:19.311Z,101163.94
2023-04-18T18:54:05.821Z,101234.09
2023-04-18T18:56:52.370Z,101233.81
2023-04-18T18:59:38.760Z,101181.19
2023-04-18T19:02:25.359Z,101132.66
2023-04-18T19:05:13.217Z,101226.00
2023-04-18T19:07:59.695Z,101172.25
2023-04-18T19:10:46.120Z,101193.00
2023-04-18T19:13:31.652Z,101221.75
2023-04-18T19:16:18.214Z,101207.84
2023-04-18T19:19:04.390Z,101198.34
2023-04-18T19:21:51.002Z,101180.09
2023-04-18T19:24:37.131Z,101214.25
2023-04-18T19:27:23.274Z,101214.78
2023-04-18T19:30:10.651Z,101142.22
2023-04-18T19:32:56.886Z,101176.13
2023-04-18T19:35:43.536Z,101218.44
2023-04-18T19:38:29.971Z,101196.34
2023-04-18T19:41:15.896Z,101157.34
2023-04-18T19:44:01.952Z,101217.75
2023-04-18T19:46:47.536Z,101147.06
2023-04-18T19:49:33.832Z,101185.56
2023-04-18T19:52:19.309Z,101207.97
2023-04-18T19:55:05.650Z,101208.53
2023-04-18T19:57:55.516Z,101208.88
2023-04-18T20:00:42.010Z,101141.13
2023-04-18T20:03:28.087Z,101127.78
2023-04-18T20:06:14.312Z,101201.50
2023-04-18T20:09:00.614Z,101204.00
2023-04-18T20:11:47.987Z,101190.56
2023-04-18T20:14:33.706Z,101203.19
2023-04-18T20:17:19.814Z,101174.47
2023-04-18T20:20:08.871Z,101202.91
2023-04-18T20:22:55.427Z,101205.91
2023-04-18T20:25:41.613Z,101188.38
2023-04-18T20:28:27.838Z,101114.66
2023-04-18T20:31:13.712Z,101190.59
2023-04-18T20:34:00.339Z,101173.94
2023-04-18T20:36:46.589Z,101125.06
2023-04-18T20:39:33.460Z,101139.00
2023-04-18T20:42:19.491Z,101189.25
2023-04-18T20:45:06.740Z,101177.00
2023-04-18T20:47:52.637Z,101126.75
2023-04-18T20:50:40.275Z,101098.06
2023-04-18T20:53:27.202Z,101158.69
2023-04-18T20:56:13.604Z,101184.13
2023-04-18T20:58:59.344Z,101181.09
2023-04-18T21:01:45.865Z,101173.16
2023-04-18T21:04:31.799Z,101166.31
2023-04-18T21:07:18.294Z,101145.28
2023-04-18T21:10:04.681Z,101149.41
2023-04-18T21:12:51.042Z,101161.13
2023-04-18T21:15:36.925Z,101133.31
2023-04-18T21:18:24.080Z,101100.78
2023-04-18T21:21:10.075Z,101099.69
2023-04-18T21:23:56.733Z,101160.34
2023-04-18T21:26:42.771Z,101163.91
2023-04-18T21:29:28.846Z,101138.50
2023-04-18T21:32:14.649Z,101116.63
2023-04-18T21:35:01.718Z,101145.06
2023-04-18T21:37:47.968Z,101159.56
2023-04-18T21:40:34.574Z,101157.09
2023-04-18T21:43:20.814Z,101161.19
2023-04-18T21:46:07.072Z,101126.75
2023-04-18T21:48:53.081Z,101084.41
2023-04-18T21:51:39.227Z,101157.38
2023-04-18T21:54:24.818Z,101059.00
2023-04-18T21:57:10.819Z,101159.53
2023-04-18T21:59:57.700Z,101149.97
2023-04-18T22:02:44.008Z,101146.69
2023-04-18T22:05:30.491Z,101151.84
2023-04-18T22:08:16.975Z,101153.25
2023-04-18T22:11:04.828Z,101087.94
2023-04-18T22:13:54.209Z,101136.00
2023-04-18T22:16:40.512Z,101121.81
2023-04-18T22:19:29.906Z,101140.13
2023-04-18T22:22:15.874Z,101134.09
2023-04-18T22:25:02.261Z,101125.91
2023-04-18T22:27:48.548Z,101128.09
2023-04-18T22:30:34.670Z,101107.28
2023-04-18T22:33:20.981Z,101125.91
2023-04-18T22:36:07.460Z,101103.22
2023-04-18T22:38:53.360Z,101017.94
2023-04-18T22:41:39.468Z,101125.34
2023-04-18T22:44:25.095Z,101083.00
2023-04-18T22:47:11.699Z,101107.84
2023-04-18T22:49:57.756Z,101107.59
2023-04-18T22:52:44.167Z,101020.16
2023-04-18T22:55:29.733Z,101093.09
2023-04-18T22:58:16.266Z,101069.28
2023-04-18T23:01:01.853Z,101031.59
2023-04-18T23:03:48.452Z,101084.31
2023-04-18T23:06:35.971Z,101032.84
2023-04-18T23:09:22.241Z,101037.78
2023-04-18T23:12:08.146Z,101063.41
2023-04-18T23:14:54.234Z,101070.03
2023-04-18T23:17:40.276Z,101005.50
2023-04-18T23:20:26.249Z,101073.00
2023-04-18T23:23:12.003Z,101038.03
2023-04-18T23:25:58.712Z,101007.72
2023-04-18T23:28:45.034Z,101059.94
2023-04-18T23:31:33.060Z,100983.94
2023-04-18T23:34:19.280Z,101060.78
2023-04-18T23:37:05.891Z,101013.22
2023-04-18T23:39:51.684Z,101038.09
2023-04-18T23:42:38.345Z,101053.66
2023-04-18T23:45:24.641Z,101035.59
2023-04-18T23:48:11.460Z,101046.25
2023-04-18T23:50:57.309Z,100994.03
2023-04-18T23:53:43.497Z,101028.81
2023-04-18T23:56:29.754Z,101021.34
2023-04-18T23:59:16.363Z,101032.81
